createdAt,value
2018-11-23T00:01:28.398Z,88.70
2018-11-23T00:03:57.579Z,88.30
2018-11-23T00:06:26.682Z,88.80
2018-11-23T00:08:56.126Z,89.00
2018-11-23T00:11:25.288Z,89.30
2018-11-23T00:13:54.505Z,89.70
2018-11-23T00:16:23.758Z,90.00
2018-11-23T00:18:52.860Z,90.00
2018-11-23T00:21:21.904Z,90.00
2018-11-23T00:23:51.436Z,90.00
2018-11-23T00:26:20.611Z,90.00
2018-11-23T00:28:50.230Z,89.90
2018-11-23T00:31:19.546Z,90.00
2018-11-23T00:33:48.654Z,89.60
2018-11-23T00:36:18.089Z,90.00
2018-11-23T00:38:47.279Z,88.70
2018-11-23T00:41:16.418Z,89.30
2018-11-23T00:43:45.664Z,89.50
2018-11-23T00:46:14.814Z,88.90
2018-11-23T00:48:44.374Z,89.40
2018-11-23T00:51:13.579Z,89.40
2018-11-23T00:53:42.649Z,90.00
2018-11-23T00:56:11.942Z,90.00
2018-11-23T00:58:41.035Z,90.10
2018-11-23T01:01:10.240Z,90.00
2018-11-23T01:03:39.343Z,89.50
2018-11-23T01:06:08.433Z,88.00
2018-11-23T01:08:37.533Z,88.70
2018-11-23T01:11:06.826Z,88.50
2018-11-23T01:13:36.002Z,89.00
2018-11-23T01:16:05.205Z,89.10
2018-11-23T01:18:34.666Z,88.70
2018-11-23T01:21:03.906Z,88.10
2018-11-23T01:23:32.963Z,88.60
2018-11-23T01:26:02.766Z,88.50
2018-11-23T01:28:32.301Z,88.70
2018-11-23T01:31:01.431Z,89.00
2018-11-23T01:33:31.322Z,89.40
2018-11-23T01:36:00.451Z,89.70
2018-11-23T01:38:29.598Z,89.90
2018-11-23T01:40:58.713Z,89.30
2018-11-23T01:43:27.781Z,89.90
2018-11-23T01:45:56.832Z,89.40
2018-11-23T01:48:26.490Z,89.40
2018-11-23T01:50:55.638Z,89.80
2018-11-23T01:53:24.869Z,89.90
2018-11-23T01:55:54.146Z,90.10
2018-11-23T01:58:23.296Z,90.20
2018-11-23T02:00:52.569Z,90.30
2018-11-23T02:03:23.160Z,90.40
2018-11-23T02:05:52.246Z,90.50
2018-11-23T02:08:21.426Z,90.30
2018-11-23T02:10:50.702Z,90.00
2018-11-23T02:13:20.255Z,90.10
2018-11-23T02:15:49.388Z,90.00
2018-11-23T02:18:18.584Z,89.60
2018-11-23T02:20:47.953Z,88.40
2018-11-23T02:23:17.436Z,88.90
2018-11-23T02:25:46.617Z,88.70
2018-11-23T02:28:15.698Z,88.30
2018-11-23T02:30:45.217Z,88.10
2018-11-23T02:33:14.390Z,88.00
2018-11-23T02:35:43.576Z,88.00
2018-11-23T02:38:12.811Z,88.70
2018-11-23T02:40:41.979Z,88.70
2018-11-23T02:43:11.090Z,88.90
2018-11-23T02:45:40.406Z,88.90
2018-11-23T02:48:09.770Z,88.50
2018-11-23T02:50:38.924Z,88.10
2018-11-23T02:53:08.042Z,88.00
2018-11-23T02:55:37.203Z,88.60
2018-11-23T02:58:06.381Z,88.40
2018-11-23T03:00:35.486Z,88.30
2018-11-23T03:03:04.821Z,88.80
2018-11-23T03:05:33.984Z,88.80
2018-11-23T03:08:03.143Z,88.10
2018-11-23T03:10:32.301Z,88.60
2018-11-23T03:13:01.849Z,88.40
2018-11-23T03:15:31.377Z,88.90
2018-11-23T03:18:00.682Z,88.90
2018-11-23T03:20:30.088Z,89.00
2018-11-23T03:22:59.170Z,89.00
2018-11-23T03:25:28.518Z,88.60
2018-11-23T03:27:57.671Z,87.80
2018-11-23T03:30:26.847Z,87.90
2018-11-23T03:32:56.005Z,87.10
2018-11-23T03:35:25.233Z,87.20
2018-11-23T03:37:54.408Z,86.90
2018-11-23T03:40:23.654Z,86.60
2018-11-23T03:42:53.673Z,87.00
2018-11-23T03:45:22.862Z,86.80
2018-11-23T03:47:52.086Z,86.70
2018-11-23T03:50:21.387Z,86.50
2018-11-23T03:52:50.522Z,86.00
2018-11-23T03:55:19.885Z,86.50
2018-11-23T03:57:49.061Z,86.40
2018-11-23T04:00:20.470Z,86.60
2018-11-23T04:02:50.010Z,86.50
2018-11-23T04:05:20.251Z,85.90
2018-11-23T04:07:49.359Z,86.40
2018-11-23T04:10:18.768Z,86.20
2018-11-23T04:12:47.930Z,86.10
2018-11-23T04:15:17.081Z,86.20
2018-11-23T04:17:46.229Z,86.40
2018-11-23T04:20:16.778Z,86.20
2018-11-23T04:22:45.944Z,86.00
2018-11-23T04:25:15.347Z,85.50
2018-11-23T04:27:44.600Z,85.60
2018-11-23T04:30:14.921Z,86.20
2018-11-23T04:32:44.486Z,85.80
2018-11-23T04:35:14.915Z,86.30
2018-11-23T04:37:44.853Z,86.60
2018-11-23T04:40:14.641Z,86.60
2018-11-23T04:42:44.706Z,86.50
2018-11-23T04:45:14.429Z,86.50
2018-11-23T04:47:43.578Z,86.40
2018-11-23T04:50:14.126Z,86.50
2018-11-23T04:52:43.582Z,86.40
2018-11-23T04:55:12.959Z,85.60
2018-11-23T04:57:43.817Z,86.20
2018-11-23T05:00:14.736Z,86.30
2018-11-23T05:02:44.341Z,86.10
2018-11-23T05:05:13.958Z,86.30
2018-11-23T05:07:44.450Z,86.10
2018-11-23T05:10:14.674Z,86.60
2018-11-23T05:12:43.809Z,86.80
2018-11-23T05:15:14.259Z,87.20
2018-11-23T05:17:43.839Z,87.20
2018-11-23T05:20:13.650Z,87.90
2018-11-23T05:22:43.161Z,88.10
2018-11-23T05:25:13.373Z,88.70
2018-11-23T05:27:42.644Z,88.80
2018-11-23T05:30:16.073Z,87.60
2018-11-23T05:32:45.265Z,88.60
2018-11-23T05:35:15.912Z,88.40
2018-11-23T05:37:45.296Z,87.70
2018-11-23T05:40:16.436Z,88.20
2018-11-23T05:42:45.624Z,88.60
2018-11-23T05:45:17.134Z,88.40
2018-11-23T05:47:47.468Z,88.00
2018-11-23T05:50:24.515Z,87.70
2018-11-23T05:52:53.925Z,87.30
2018-11-23T05:55:23.121Z,86.80
2018-11-23T06:03:05.109Z,85.50
2018-11-23T06:05:34.547Z,85.90
2018-11-23T06:08:03.685Z,85.30
2018-11-23T06:10:33.393Z,84.70
2018-11-23T06:13:02.525Z,85.40
2018-11-23T06:15:31.905Z,85.70
2018-11-23T06:18:01.048Z,85.50
2018-11-23T06:20:30.227Z,86.10
2018-11-23T06:22:59.802Z,85.60
2018-11-23T06:25:35.799Z,85.50
2018-11-23T06:28:08.327Z,85.60
2018-11-23T06:30:38.314Z,85.90
2018-11-23T06:33:22.402Z,85.20
2018-11-23T06:35:52.153Z,85.80
2018-11-23T06:38:21.334Z,85.10
2018-11-23T06:40:50.941Z,85.30
2018-11-23T06:43:20.238Z,84.90
2018-11-23T06:45:49.420Z,84.90
2018-11-23T06:48:18.533Z,85.40
2018-11-23T06:50:48.041Z,84.60
2018-11-23T06:53:17.185Z,85.00
2018-11-23T06:55:46.579Z,85.00
2018-11-23T06:58:15.804Z,84.70
2018-11-23T07:00:44.954Z,85.30
2018-11-23T07:03:14.057Z,85.30
2018-11-23T07:05:43.214Z,85.10
2018-11-23T07:08:13.205Z,84.90
2018-11-23T07:10:42.478Z,84.10
2018-11-23T07:13:11.695Z,84.70
2018-11-23T07:15:41.210Z,84.90
2018-11-23T07:18:10.440Z,84.90
2018-11-23T07:20:39.629Z,84.90
2018-11-23T07:23:08.932Z,85.00
2018-11-23T07:25:38.484Z,83.80
2018-11-23T07:28:07.829Z,83.70
2018-11-23T07:30:37.000Z,83.70
2018-11-23T07:33:06.947Z,84.60
2018-11-23T07:35:36.564Z,84.20
2018-11-23T07:38:06.062Z,84.70
2018-11-23T07:40:47.708Z,85.00
2018-11-23T07:43:17.464Z,85.80
2018-11-23T07:45:46.501Z,85.90
2018-11-23T07:48:15.643Z,86.00
2018-11-23T07:50:44.789Z,85.80
2018-11-23T07:53:13.994Z,84.20
2018-11-23T07:55:43.275Z,84.70
2018-11-23T07:58:15.216Z,84.30
2018-11-23T08:00:44.629Z,83.80
2018-11-23T08:03:13.784Z,83.40
2018-11-23T08:05:42.857Z,84.70
2018-11-23T08:08:12.090Z,83.40
2018-11-23T08:10:40.661Z,84.60
2018-11-23T08:13:09.970Z,83.30
2018-11-23T08:15:39.205Z,83.50
2018-11-23T08:18:08.349Z,83.50
2018-11-23T08:20:37.885Z,83.60
2018-11-23T08:23:07.005Z,82.70
2018-11-23T08:25:36.881Z,83.30
2018-11-23T08:28:06.117Z,82.50
2018-11-23T08:30:35.586Z,83.00
2018-11-23T08:33:05.812Z,83.30
2018-11-23T08:35:34.932Z,83.60
2018-11-23T08:38:04.426Z,84.20
2018-11-23T08:40:33.526Z,84.10
2018-11-23T08:43:02.733Z,83.80
2018-11-23T08:45:31.880Z,84.20
2018-11-23T08:48:01.077Z,84.30
2018-11-23T08:50:31.139Z,84.10
2018-11-23T08:53:02.059Z,84.10
2018-11-23T08:55:31.282Z,83.70
2018-11-23T08:58:00.589Z,83.30
2018-11-23T09:00:30.027Z,83.80
2018-11-23T09:03:00.657Z,82.90
2018-11-23T09:05:29.848Z,82.70
2018-11-23T09:07:59.672Z,83.30
2018-11-23T09:10:31.116Z,83.30
2018-11-23T09:13:02.530Z,83.10
2018-11-23T09:15:31.718Z,83.60
2018-11-23T09:18:01.477Z,83.20
2018-11-23T09:20:31.326Z,83.10
2018-11-23T09:23:01.716Z,83.30
2018-11-23T09:25:31.062Z,83.50
2018-11-23T09:28:00.321Z,83.90
2018-11-23T09:30:29.846Z,84.30
2018-11-23T09:32:59.262Z,84.30
2018-11-23T09:37:58.689Z,83.60
2018-11-23T09:40:29.217Z,83.70
2018-11-23T09:42:58.364Z,83.40
2018-11-23T09:45:29.861Z,83.70
2018-11-23T09:48:00.704Z,83.20
2018-11-23T09:50:30.569Z,83.00
2018-11-23T09:53:03.273Z,82.80
2018-11-23T09:55:33.690Z,83.40
2018-11-23T09:58:02.877Z,83.30
2018-11-23T10:00:34.888Z,83.00
2018-11-23T10:03:05.237Z,83.10
2018-11-23T10:08:06.233Z,83.60
2018-11-23T10:10:35.742Z,83.60
2018-11-23T10:13:05.106Z,83.40
2018-11-23T10:15:34.519Z,83.10
2018-11-23T10:18:03.543Z,82.40
2018-11-23T10:20:35.648Z,81.50
2018-11-23T10:23:04.807Z,81.80
2018-11-23T10:25:35.012Z,81.90
2018-11-23T10:28:05.206Z,81.60
2018-11-23T10:30:35.669Z,80.60
2018-11-23T10:33:07.385Z,80.20
2018-11-23T10:35:36.767Z,80.70
2018-11-23T10:38:06.822Z,80.40
2018-11-23T10:40:37.837Z,81.00
2018-11-23T10:43:07.290Z,80.80
2018-11-23T10:45:36.712Z,81.40
2018-11-23T10:48:06.799Z,81.80
2018-11-23T10:50:37.432Z,81.80
2018-11-23T10:53:06.858Z,82.40
2018-11-23T10:55:36.827Z,82.40
2018-11-23T10:58:06.319Z,82.10
2018-11-23T11:00:40.812Z,82.20
2018-11-23T11:03:15.177Z,81.00
2018-11-23T11:05:56.766Z,81.60
2018-11-23T11:08:25.938Z,81.60
2018-11-23T11:10:55.119Z,80.00
2018-11-23T11:13:24.729Z,79.10
2018-11-23T11:15:54.119Z,79.70
2018-11-23T11:18:23.364Z,78.90
2018-11-23T11:20:52.621Z,78.70
2018-11-23T11:23:22.046Z,78.80
2018-11-23T11:25:51.081Z,79.40
2018-11-23T11:28:21.058Z,79.60
2018-11-23T11:30:50.196Z,80.10
2018-11-23T11:33:19.497Z,80.20
2018-11-23T11:35:48.982Z,80.70
2018-11-23T11:38:18.051Z,81.20
2018-11-23T11:40:47.172Z,81.00
2018-11-23T11:43:16.406Z,80.70
2018-11-23T11:45:45.861Z,81.10
2018-11-23T11:48:15.290Z,80.80
2018-11-23T11:50:44.515Z,80.50
2018-11-23T11:53:14.460Z,80.70
2018-11-23T11:55:43.829Z,80.80
2018-11-23T11:58:12.990Z,80.50
2018-11-23T12:00:42.501Z,80.90
2018-11-23T12:03:12.065Z,80.90
2018-11-23T12:05:41.454Z,80.80
2018-11-23T12:08:10.813Z,81.30
2018-11-23T12:10:40.037Z,81.40
2018-11-23T12:13:09.782Z,81.40
2018-11-23T12:15:38.834Z,81.30
2018-11-23T12:18:08.069Z,81.20
2018-11-23T12:20:37.631Z,81.00
2018-11-23T12:23:06.699Z,81.10
2018-11-23T12:25:36.182Z,81.30
2018-11-23T12:28:06.355Z,80.90
2018-11-23T12:30:37.971Z,80.70
2018-11-23T12:33:07.192Z,80.90
2018-11-23T12:35:36.446Z,80.60
2018-11-23T12:38:06.461Z,80.00
2018-11-23T12:40:35.587Z,79.50
2018-11-23T12:43:05.058Z,78.90
2018-11-23T12:45:35.102Z,79.50
2018-11-23T12:48:04.221Z,78.90
2018-11-23T12:50:34.253Z,77.80
2018-11-23T12:53:06.417Z,78.30
2018-11-23T12:55:32.804Z,78.10
2018-11-23T12:58:01.943Z,78.30
2018-11-23T13:00:31.213Z,78.80
2018-11-23T13:03:02.551Z,78.80
2018-11-23T13:05:33.954Z,79.20
2018-11-23T13:08:04.625Z,79.40
2018-11-23T13:10:34.145Z,79.30
2018-11-23T13:13:04.162Z,79.20
2018-11-23T13:15:33.709Z,78.80
2018-11-23T13:18:03.189Z,79.30
2018-11-23T13:20:32.951Z,79.20
2018-11-23T13:23:02.405Z,79.50
2018-11-23T13:25:32.833Z,79.60
2018-11-23T13:28:02.538Z,79.50
2018-11-23T13:30:35.069Z,79.60
2018-11-23T13:33:04.328Z,80.00
2018-11-23T13:35:33.502Z,81.90
2018-11-23T13:38:02.856Z,82.20
2018-11-23T13:40:32.147Z,81.00
2018-11-23T13:43:01.677Z,80.70
2018-11-23T13:45:32.480Z,80.50
2018-11-23T13:48:01.797Z,80.50
2018-11-23T13:50:31.023Z,80.40
2018-11-23T13:53:02.109Z,80.20
2018-11-23T13:55:33.547Z,80.20
2018-11-23T13:58:02.808Z,79.70
2018-11-23T14:00:32.216Z,79.70
2018-11-23T14:03:01.727Z,80.20
2018-11-23T14:05:32.566Z,80.10
2018-11-23T14:08:02.987Z,80.60
2018-11-23T14:10:32.398Z,81.00
2018-11-23T14:13:02.639Z,80.50
2018-11-23T14:15:32.176Z,81.10
2018-11-23T14:18:01.785Z,81.10
2018-11-23T14:20:31.047Z,81.20
2018-11-23T14:23:00.358Z,81.20
2018-11-23T14:25:30.977Z,81.90
2018-11-23T14:28:00.238Z,82.10
2018-11-23T14:30:31.084Z,82.50
2018-11-23T14:33:01.243Z,82.30
2018-11-23T14:35:31.244Z,81.70
2018-11-23T14:38:00.913Z,81.90
2018-11-23T14:40:30.110Z,81.90
2018-11-23T14:42:59.426Z,81.80
2018-11-23T14:45:30.737Z,81.90
2018-11-23T14:48:01.919Z,82.00
2018-11-23T14:50:33.689Z,81.70
2018-11-23T14:53:03.074Z,81.80
2018-11-23T14:55:32.484Z,81.60
2018-11-23T14:58:02.855Z,82.20
2018-11-23T15:00:34.806Z,82.50
2018-11-23T15:03:05.542Z,81.70
2018-11-23T15:05:35.398Z,82.20
2018-11-23T15:08:04.744Z,81.90
2018-11-23T15:10:35.478Z,81.90
2018-11-23T15:13:05.962Z,81.80
2018-11-23T15:15:36.938Z,82.00
2018-11-23T15:18:07.138Z,82.10
2018-11-23T15:20:39.163Z,82.20
2018-11-23T15:23:12.086Z,81.70
2018-11-23T15:25:41.272Z,82.20
2018-11-23T15:28:11.910Z,82.20
2018-11-23T15:30:41.921Z,82.50
2018-11-23T15:33:12.671Z,82.80
2018-11-23T15:35:42.875Z,82.10
2018-11-23T15:38:15.935Z,82.50
2018-11-23T15:40:45.478Z,82.60
2018-11-23T15:43:15.997Z,83.20
2018-11-23T15:45:45.284Z,83.00
2018-11-23T15:48:14.625Z,82.40
2018-11-23T15:50:44.690Z,83.00
2018-11-23T15:53:15.366Z,82.80
2018-11-23T15:55:48.453Z,83.20
2018-11-23T15:58:18.686Z,83.60
2018-11-23T16:00:48.828Z,83.60
2018-11-23T16:03:18.976Z,83.80
2018-11-23T16:05:48.272Z,83.90
2018-11-23T16:08:18.906Z,84.10
2018-11-23T16:10:48.512Z,83.90
2018-11-23T16:13:19.604Z,83.70
2018-11-23T16:15:49.014Z,84.40
2018-11-23T16:18:19.806Z,83.80
2018-11-23T16:20:50.104Z,84.40
2018-11-23T16:23:20.582Z,84.20
2018-11-23T16:25:51.609Z,84.10
2018-11-23T16:28:21.254Z,83.30
2018-11-23T16:30:51.263Z,83.80
2018-11-23T16:33:22.117Z,83.70
2018-11-23T16:38:21.706Z,83.30
2018-11-23T16:40:56.376Z,83.70
2018-11-23T16:43:25.610Z,83.80
2018-11-23T16:45:54.910Z,83.90
2018-11-23T16:48:25.369Z,82.60
2018-11-23T16:50:54.803Z,83.20
2018-11-23T16:53:24.047Z,83.60
2018-11-23T16:55:53.368Z,83.40
2018-11-23T16:58:22.549Z,83.30
2018-11-23T17:00:52.247Z,83.90
2018-11-23T17:03:22.479Z,83.80
2018-11-23T17:05:53.104Z,83.50
2018-11-23T17:08:22.488Z,83.10
2018-11-23T17:10:51.714Z,83.70
2018-11-23T17:13:21.118Z,84.00
2018-11-23T17:15:50.523Z,83.40
2018-11-23T17:18:19.659Z,84.00
2018-11-23T17:20:48.855Z,84.20
2018-11-23T17:25:47.374Z,84.00
2018-11-23T17:28:16.572Z,84.70
2018-11-23T17:30:45.881Z,84.90
2018-11-23T17:33:15.374Z,85.00
2018-11-23T17:35:45.205Z,84.20
2018-11-23T17:38:14.399Z,84.90
2018-11-23T17:40:43.958Z,83.70
2018-11-23T17:43:13.515Z,84.20
2018-11-23T17:45:42.725Z,84.00
2018-11-23T17:48:12.015Z,84.10
2018-11-23T17:50:41.261Z,84.00
2018-11-23T17:53:10.511Z,83.60
2018-11-23T17:55:40.231Z,84.00
2018-11-23T17:58:09.421Z,84.60
2018-11-23T18:00:39.652Z,84.60
2018-11-23T18:03:08.736Z,84.60
2018-11-23T18:05:38.147Z,84.70
2018-11-23T18:08:08.005Z,84.40
2018-11-23T18:13:06.645Z,83.70
2018-11-23T18:15:39.048Z,83.80
2018-11-23T18:18:09.648Z,84.00
2018-11-23T18:20:40.573Z,84.30
2018-11-23T18:23:12.164Z,84.30
2018-11-23T18:25:41.600Z,84.30
2018-11-23T18:28:11.930Z,85.10
2018-11-23T18:30:41.151Z,85.50
2018-11-23T18:33:10.484Z,85.90
2018-11-23T18:35:39.761Z,85.80
2018-11-23T18:38:09.243Z,85.90
2018-11-23T18:40:38.886Z,86.00
2018-11-23T18:43:08.661Z,85.20
2018-11-23T18:45:37.875Z,85.70
2018-11-23T18:48:07.270Z,85.50
2018-11-23T18:50:36.685Z,85.50
2018-11-23T18:53:06.180Z,84.90
2018-11-23T18:58:09.640Z,84.40
2018-11-23T19:00:38.917Z,85.00
2018-11-23T19:03:08.198Z,83.60
2018-11-23T19:05:37.768Z,84.30
2018-11-23T19:08:07.103Z,84.10
2018-11-23T19:10:36.406Z,84.20
2018-11-23T19:13:06.318Z,84.30
2018-11-23T19:15:35.961Z,84.30
2018-11-23T19:18:05.348Z,84.00
2018-11-23T19:20:34.611Z,84.20
2018-11-23T19:23:04.118Z,84.20
2018-11-23T19:25:33.640Z,83.30
2018-11-23T19:28:03.031Z,83.90
2018-11-23T19:30:33.240Z,84.20
2018-11-23T19:33:03.239Z,84.20
2018-11-23T19:35:32.764Z,83.70
2018-11-23T19:38:02.388Z,84.20
2018-11-23T19:40:31.740Z,84.20
2018-11-23T19:43:01.100Z,83.90
2018-11-23T19:47:59.763Z,83.80
2018-11-23T19:50:28.866Z,84.40
2018-11-23T19:52:58.906Z,84.50
2018-11-23T19:55:28.361Z,84.50
2018-11-23T19:57:57.808Z,84.40
2018-11-23T20:00:27.917Z,84.10
2018-11-23T20:02:57.407Z,84.50
2018-11-23T20:05:26.618Z,84.40
2018-11-23T20:07:57.237Z,84.70
2018-11-23T20:13:00.758Z,85.10
2018-11-23T20:15:30.025Z,84.20
2018-11-23T20:18:00.583Z,83.60
2018-11-23T20:20:30.650Z,84.20
2018-11-23T20:23:00.313Z,84.40
2018-11-23T20:25:29.710Z,84.40
2018-11-23T20:28:00.244Z,84.20
2018-11-23T20:30:30.187Z,83.80
2018-11-23T20:32:59.595Z,83.80
2018-11-23T20:35:29.392Z,83.20
2018-11-23T20:37:59.335Z,82.90
2018-11-23T20:40:28.777Z,83.10
2018-11-23T20:42:59.130Z,83.60
2018-11-23T20:45:28.626Z,83.60
2018-11-23T20:47:58.209Z,83.80
2018-11-23T20:50:27.664Z,83.70
2018-11-23T20:52:57.651Z,84.40
2018-11-23T20:55:31.087Z,84.10
2018-11-23T20:58:00.851Z,84.40
2018-11-23T21:00:30.383Z,84.10
2018-11-23T21:02:59.770Z,84.60
2018-11-23T21:05:30.075Z,84.10
2018-11-23T21:07:59.314Z,84.60
2018-11-23T21:10:28.848Z,84.80
2018-11-23T21:12:58.510Z,85.10
2018-11-23T21:15:29.334Z,84.30
2018-11-23T21:18:01.606Z,84.90
2018-11-23T21:20:30.771Z,85.00
2018-11-23T21:22:59.998Z,84.80
2018-11-23T21:25:33.995Z,84.30
2018-11-23T21:28:03.407Z,84.50
2018-11-23T21:30:33.194Z,82.40
2018-11-23T21:33:02.738Z,84.50
2018-11-23T21:35:32.023Z,84.50
2018-11-23T21:38:01.395Z,84.30
2018-11-23T21:40:30.732Z,84.10
2018-11-23T21:42:59.936Z,83.90
2018-11-23T21:45:29.231Z,84.00
2018-11-23T21:47:58.654Z,84.00
2018-11-23T21:50:27.909Z,83.80
2018-11-23T21:52:57.427Z,83.60
2018-11-23T21:55:26.842Z,83.90
2018-11-23T21:57:56.553Z,84.20
2018-11-23T22:00:25.829Z,83.30
2018-11-23T22:02:55.349Z,83.70
2018-11-23T22:05:24.825Z,83.90
2018-11-23T22:07:54.057Z,83.50
2018-11-23T22:10:23.522Z,83.50
2018-11-23T22:12:53.169Z,83.80
2018-11-23T22:15:24.745Z,83.60
2018-11-23T22:17:55.242Z,83.30
2018-11-23T22:20:26.108Z,83.40
2018-11-23T22:22:55.404Z,83.40
2018-11-23T22:27:54.307Z,82.90
2018-11-23T22:30:25.911Z,83.50
2018-11-23T22:32:55.174Z,83.80
2018-11-23T22:35:24.688Z,84.00
2018-11-23T22:37:53.799Z,83.20
2018-11-23T22:40:23.130Z,83.80
2018-11-23T22:42:53.933Z,83.70
2018-11-23T22:45:23.165Z,83.90
2018-11-23T22:47:52.453Z,83.90
2018-11-23T22:50:23.696Z,84.00
2018-11-23T22:52:53.026Z,84.10
2018-11-23T22:55:22.224Z,84.20
2018-11-23T22:57:51.263Z,84.20
2018-11-23T23:00:26.686Z,84.00
2018-11-23T23:02:55.937Z,83.80
2018-11-23T23:05:25.320Z,83.50
2018-11-23T23:07:55.047Z,82.90
2018-11-23T23:10:24.239Z,83.60
2018-11-23T23:12:53.393Z,83.60
2018-11-23T23:15:22.882Z,84.10
2018-11-23T23:17:52.312Z,83.80
2018-11-23T23:20:22.768Z,84.80
2018-11-23T23:22:52.065Z,84.20
2018-11-23T23:25:21.764Z,84.10
2018-11-23T23:27:50.956Z,83.90
2018-11-23T23:30:20.595Z,83.80
2018-11-23T23:32:50.291Z,83.90
2018-11-23T23:35:19.690Z,84.10
2018-11-23T23:37:48.890Z,83.80
2018-11-23T23:40:18.647Z,83.60
2018-11-23T23:42:48.824Z,83.50
2018-11-23T23:45:18.736Z,83.50
2018-11-23T23:47:48.366Z,83.50
2018-11-23T23:50:21.739Z,83.60
2018-11-23T23:52:51.256Z,83.60
2018-11-23T23:55:20.463Z,83.70
2018-11-23T23:57:49.880Z,83.60
